Time;durP1;ratioP1;P1;durP2;ratioP2;P2;SDS_P1;SDS_P2;PMS_P1;PMS_P2;Temp;Humidity;BMP_temperature;BMP_pressure;BME280_temperature;BME280_humidity;BME280_pressure;Samples;Min_cycle;Max_cycle;Signal;HPM_P1;HPM_P2
2022/05/04 00:00:46;;;;;;;12.18;7.53;;;12.40;7.80;;;;;;7362760;19;20006;-62
2022/05/04 00:03:16;;;;;;;8.68;7.05;;;12.40;8.30;;;;;;7364826;19;20081;-63
2022/05/04 00:05:46;;;;;;;11.05;7.68;;;12.40;8.30;;;;;;7360611;19;20114;-62
2022/05/04 00:08:15;;;;;;;12.25;7.55;;;12.30;8.90;;;;;;7380838;19;20582;-64
2022/05/04 00:10:45;;;;;;;8.38;7.25;;;12.20;9.20;;;;;;7361784;19;20010;-63
2022/05/04 00:13:15;;;;;;;9.18;7.65;;;12.00;10.70;;;;;;7363268;19;20013;-63
2022/05/04 00:15:48;;;;;;;8.40;7.50;;;12.00;11.80;;;;;;7359760;19;20010;-64
2022/05/04 00:18:18;;;;;;;7.97;7.18;;;11.90;12.50;;;;;;7359113;19;20564;-64
2022/05/04 00:20:47;;;;;;;9.40;7.28;;;11.90;13.60;;;;;;7361587;19;20022;-64
2022/05/04 00:23:20;;;;;;;8.77;7.88;;;11.90;14.10;;;;;;7385510;19;20025;-65
2022/05/04 00:25:50;;;;;;;11.27;8.30;;;11.80;14.10;;;;;;7357649;19;20013;-62
2022/05/04 00:28:20;;;;;;;10.32;8.45;;;11.70;16.20;;;;;;7356346;19;20473;-62
2022/05/04 00:30:53;;;;;;;12.13;9.63;;;11.50;17.00;;;;;;7363028;19;20006;-62
2022/05/04 00:33:23;;;;;;;11.57;10.15;;;11.40;21.00;;;;;;7363748;19;20011;-62
2022/05/04 00:35:53;;;;;;;11.52;10.15;;;11.30;24.00;;;;;;7359822;19;20082;-63
2022/05/04 00:38:23;;;;;;;11.07;9.98;;;11.20;26.80;;;;;;7380000;19;20015;-63
2022/05/04 00:40:52;;;;;;;14.40;10.70;;;11.20;29.10;;;;;;7360809;19;20011;-63
2022/05/04 00:43:24;;;;;;;16.38;11.25;;;11.20;29.70;;;;;;7360559;19;20003;-63
2022/05/04 00:45:56;;;;;;;13.23;10.95;;;11.20;30.60;;;;;;7359402;19;20014;-62
2022/05/04 00:48:26;;;;;;;14.25;12.10;;;11.20;31.20;;;;;;7357285;19;20376;-63
2022/05/04 00:50:57;;;;;;;16.05;12.38;;;11.30;30.70;;;;;;7363256;19;20439;-62
2022/05/04 00:53:27;;;;;;;13.52;11.93;;;11.20;31.00;;;;;;7385741;19;20010;-62
2022/05/04 00:55:59;;;;;;;16.35;11.50;;;11.10;30.90;;;;;;7357081;19;20053;-63
2022/05/04 01:01:15;;;;;;;14.02;11.13;;;11.10;32.50;;;;;;7360538;19;20006;-62
2022/05/04 01:03:45;;;;;;;15.48;11.57;;;11.00;32.30;;;;;;7362314;19;20026;-63
2022/05/04 01:06:15;;;;;;;13.88;10.90;;;10.90;33.40;;;;;;7363363;19;20340;-62
2022/05/04 01:08:45;;;;;;;14.07;11.82;;;11.00;33.60;;;;;;7365127;19;20029;-63
2022/05/04 01:11:15;;;;;;;16.45;12.57;;;10.90;34.10;;;;;;7391054;19;20017;-62
2022/05/04 01:13:45;;;;;;;14.65;12.40;;;11.00;33.90;;;;;;7368247;19;20082;-62
2022/05/04 01:16:17;;;;;;;13.52;11.65;;;10.90;34.00;;;;;;7366877;19;20078;-63
2022/05/04 01:18:47;;;;;;;16.85;11.40;;;10.80;34.20;;;;;;7364114;19;20010;-62
2022/05/04 01:21:17;;;;;;;14.32;11.32;;;10.80;34.40;;;;;;7368090;19;20028;-63
2022/05/04 01:23:49;;;;;;;13.93;11.70;;;10.90;30.80;;;;;;7368376;19;20011;-63
2022/05/04 01:26:19;;;;;;;14.98;11.68;;;10.90;28.90;;;;;;7388604;19;20478;-62
2022/05/04 01:28:49;;;;;;;14.80;11.18;;;10.90;29.50;;;;;;7362887;19;20017;-62
2022/05/04 01:31:24;;;;;;;;;;;10.80;30.40;;;;;;7367860;19;20014;-62
2022/05/04 01:33:54;;;;;;;13.07;10.98;;;10.80;30.70;;;;;;7368330;19;19914;-63
2022/05/04 01:36:24;;;;;;;13.57;11.93;;;10.80;30.80;;;;;;7365873;19;20006;-62
2022/05/04 01:38:56;;;;;;;14.38;12.10;;;10.80;31.10;;;;;;7361308;19;23294;-62
2022/05/04 01:44:08;;;;;;;15.95;11.30;;;10.70;32.20;;;;;;7368052;19;20471;-62
2022/05/04 01:46:38;;;;;;;15.40;11.93;;;10.60;32.90;;;;;;7364952;19;20021;-62
2022/05/04 01:49:08;;;;;;;14.98;11.05;;;10.50;33.60;;;;;;7363310;19;20010;-62
2022/05/04 01:51:38;;;;;;;17.05;12.30;;;10.60;34.50;;;;;;7368146;19;20016;-62
2022/05/04 01:54:10;;;;;;;18.50;12.82;;;10.60;34.60;;;;;;7366443;19;20007;-62
2022/05/04 01:56:40;;;;;;;17.08;12.70;;;10.60;34.40;;;;;;7366277;19;20687;-63
2022/05/04 01:59:10;;;;;;;16.85;12.63;;;10.60;34.40;;;;;;7386702;19;20006;-63
2022/05/04 02:01:41;;;;;;;14.77;11.82;;;10.60;33.80;;;;;;7366342;19;20017;-63
2022/05/04 02:04:11;;;;;;;17.10;13.38;;;10.50;35.00;;;;;;7367091;19;20463;-63
2022/05/04 02:06:41;;;;;;;15.65;12.40;;;10.50;36.10;;;;;;7367954;19;20113;-63
2022/05/04 02:09:14;;;;;;;15.95;12.38;;;10.50;35.40;;;;;;7362553;19;20018;-63
2022/05/04 02:11:44;;;;;;;17.08;12.07;;;10.50;35.50;;;;;;7367131;19;20597;-63
2022/05/04 02:14:13;;;;;;;15.75;11.75;;;10.50;36.00;;;;;;7388094;19;20022;-63
2022/05/04 02:16:43;;;;;;;18.75;12.75;;;10.70;35.30;;;;;;7367233;19;20017;-62
2022/05/04 02:19:14;;;;;;;14.98;12.15;;;10.70;34.50;;;;;;7361008;19;20105;-62
2022/05/04 02:21:43;;;;;;;15.27;12.05;;;10.60;34.60;;;;;;7366649;19;20021;-63
2022/05/04 02:24:16;;;;;;;15.18;11.75;;;10.60;34.90;;;;;;7366332;19;20025;-63
2022/05/04 02:26:46;;;;;;;15.05;12.25;;;10.70;35.30;;;;;;7368046;19;20019;-63
2022/05/04 02:29:16;;;;;;;14.98;11.65;;;10.70;34.50;;;;;;7382900;19;20022;-63
2022/05/04 02:31:45;;;;;;;15.57;11.25;;;10.80;33.90;;;;;;7365996;19;20485;-63
2022/05/04 02:34:15;;;;;;;13.48;11.70;;;10.70;34.00;;;;;;7365704;19;20017;-63
2022/05/04 02:39:30;;;;;;;15.63;12.50;;;10.70;33.80;;;;;;7358740;19;20077;-63
2022/05/04 02:42:00;;;;;;;16.52;12.63;;;10.70;34.00;;;;;;7365064;19;20043;-63
2022/05/04 02:44:30;;;;;;;14.73;12.23;;;10.70;35.10;;;;;;7387917;19;20018;-63
2022/05/04 02:47:00;;;;;;;16.95;11.95;;;10.80;34.10;;;;;;7366262;19;20032;-63
2022/05/04 02:49:29;;;;;;;17.70;12.70;;;10.90;33.80;;;;;;7358325;19;20014;-63
2022/05/04 02:51:59;;;;;;;15.55;11.90;;;11.00;33.60;;;;;;7366049;19;20086;-63
2022/05/04 02:54:32;;;;;;;15.20;11.40;;;11.00;33.30;;;;;;7364748;19;20021;-63
2022/05/04 02:57:02;;;;;;;14.95;11.85;;;11.00;33.00;;;;;;7366744;19;20817;-63
2022/05/04 02:59:32;;;;;;;14.43;11.38;;;11.00;31.90;;;;;;7379701;19;20014;-63
2022/05/04 03:04:44;;;;;;;12.20;10.90;;;11.10;30.00;;;;;;7364136;19;20014;-63
2022/05/04 03:07:14;;;;;;;12.65;11.05;;;11.10;29.60;;;;;;7365746;19;20021;-63
2022/05/04 03:09:46;;;;;;;17.20;11.93;;;11.20;29.70;;;;;;7357119;19;20018;-63
2022/05/04 03:12:16;;;;;;;13.38;11.23;;;11.20;29.70;;;;;;7365579;19;20541;-63
2022/05/04 03:14:46;;;;;;;17.35;12.95;;;11.10;30.40;;;;;;7365621;19;20017;-65
2022/05/04 03:17:17;;;;;;;17.95;13.48;;;11.20;30.70;;;;;;7387061;19;20089;-63
2022/05/04 03:19:47;;;;;;;15.90;12.90;;;11.20;30.40;;;;;;7357115;19;20010;-63
2022/05/04 03:22:18;;;;;;;15.82;13.10;;;11.20;31.60;;;;;;7364113;19;20021;-63
2022/05/04 03:24:50;;;;;;;15.85;12.68;;;11.20;31.50;;;;;;7364548;19;20410;-63
2022/05/04 03:27:20;;;;;;;15.38;12.80;;;11.20;31.90;;;;;;7365462;19;20093;-63
2022/05/04 03:29:50;;;;;;;13.95;12.45;;;11.20;31.10;;;;;;7356771;19;20367;-63
2022/05/04 03:32:20;;;;;;;15.55;12.60;;;11.30;30.80;;;;;;7384498;19;20040;-63
2022/05/04 03:34:50;;;;;;;17.20;12.57;;;11.30;29.70;;;;;;7363318;19;20021;-63
2022/05/04 03:37:20;;;;;;;15.60;13.27;;;11.20;29.70;;;;;;7364456;19;20018;-63
2022/05/04 03:39:52;;;;;;;17.35;13.55;;;11.30;29.80;;;;;;7355522;19;20608;-63
2022/05/04 03:42:23;;;;;;;16.17;13.25;;;11.30;29.30;;;;;;7364108;19;20014;-63
2022/05/04 03:44:53;;;;;;;19.83;13.38;;;11.40;29.80;;;;;;7363316;19;20031;-62
2022/05/04 03:47:23;;;;;;;16.63;13.52;;;11.30;29.20;;;;;;7385941;19;20492;-64
2022/05/04 03:49:52;;;;;;;14.80;12.50;;;11.40;29.80;;;;;;7355319;19;20010;-63
2022/05/04 03:52:23;;;;;;;16.50;13.55;;;11.40;28.10;;;;;;7364098;19;20044;-63
2022/05/04 03:54:56;;;;;;;16.17;12.65;;;11.50;28.70;;;;;;7363922;19;20070;-62
2022/05/04 03:57:26;;;;;;;16.52;12.85;;;11.40;28.30;;;;;;7365676;19;20014;-62
2022/05/04 03:59:55;;;;;;;16.30;12.05;;;11.40;28.00;;;;;;7355861;19;20862;-62
2022/05/04 04:02:25;;;;;;;14.63;11.80;;;11.30;27.90;;;;;;7385089;19;20021;-62
2022/05/04 04:04:55;;;;;;;14.60;11.45;;;11.40;28.30;;;;;;7362339;19;20014;-64
2022/05/04 04:07:25;;;;;;;20.27;12.55;;;11.40;27.80;;;;;;7363811;19;20077;-62
2022/05/04 04:09:57;;;;;;;14.23;11.45;;;11.50;27.30;;;;;;7356407;19;20082;-62
2022/05/04 04:12:27;;;;;;;15.07;11.80;;;11.50;27.30;;;;;;7362824;19;20487;-63
2022/05/04 04:14:57;;;;;;;15.30;11.63;;;11.60;26.90;;;;;;7362963;19;20056;-63
2022/05/04 04:17:27;;;;;;;12.93;11.23;;;11.50;27.00;;;;;;7386273;19;20010;-63
2022/05/04 04:22:39;;;;;;;14.18;12.15;;;11.60;27.00;;;;;;7359833;19;20039;-65
2022/05/04 04:25:12;;;;;;;15.10;11.73;;;11.60;26.80;;;;;;7362562;19;20097;-63
2022/05/04 04:27:42;;;;;;;19.33;12.05;;;11.70;26.80;;;;;;7362896;19;20010;-63
2022/05/04 04:30:14;;;;;;;21.92;13.02;;;11.70;26.10;;;;;;7354045;19;20028;-62
2022/05/04 04:32:44;;;;;;;16.83;12.27;;;11.70;25.50;;;;;;7361946;19;20014;-64
2022/05/04 04:35:13;;;;;;;19.55;12.05;;;11.70;25.90;;;;;;7383298;19;20015;-63
2022/05/04 04:37:43;;;;;;;13.77;11.50;;;11.70;26.30;;;;;;7362238;19;20490;-63
2022/05/04 04:40:16;;;;;;;17.70;12.20;;;11.80;24.90;;;;;;7356641;19;20031;-63
2022/05/04 04:42:46;;;;;;;17.73;12.55;;;11.80;26.20;;;;;;7369522;19;20010;-64
2022/05/04 04:45:17;;;;;;;20.15;12.60;;;11.70;26.10;;;;;;7368001;19;20030;-63
2022/05/04 04:47:47;;;;;;;16.85;12.00;;;11.70;26.60;;;;;;7370210;19;20021;-63
2022/05/04 04:50:17;;;;;;;15.70;12.40;;;11.70;26.70;;;;;;7383594;19;20486;-63
2022/05/04 04:52:47;;;;;;;19.02;12.05;;;11.60;27.00;;;;;;7369669;19;20526;-63
2022/05/04 04:55:19;;;;;;;18.02;11.70;;;11.70;26.90;;;;;;7369699;19;20010;-63
2022/05/04 04:57:49;;;;;;;18.70;12.30;;;11.70;26.60;;;;;;7371534;19;20375;-63
2022/05/04 05:00:20;;;;;;;16.02;12.20;;;11.70;26.20;;;;;;7361333;19;20077;-63
2022/05/04 05:02:50;;;;;;;14.98;11.85;;;11.80;26.90;;;;;;7368239;19;20073;-63
2022/05/04 05:05:20;;;;;;;17.20;12.95;;;11.80;26.90;;;;;;7389753;19;20018;-62
2022/05/04 05:07:50;;;;;;;14.98;11.90;;;11.70;26.70;;;;;;7369458;19;20015;-62
2022/05/04 05:10:23;;;;;;;14.90;11.82;;;11.70;27.30;;;;;;7361567;19;20026;-64
2022/05/04 05:12:52;;;;;;;15.20;12.70;;;11.70;25.70;;;;;;7369642;19;20018;-63
2022/05/04 05:18:05;;;;;;;16.35;11.25;;;11.60;25.70;;;;;;7366114;19;20021;-63
2022/05/04 05:20:35;;;;;;;15.65;11.52;;;11.50;24.80;;;;;;7387658;19;20042;-63
2022/05/04 05:23:06;;;;;;;18.92;11.75;;;11.50;25.90;;;;;;7366987;19;20014;-63
2022/05/04 05:25:39;;;;;;;17.90;12.63;;;11.60;25.20;;;;;;7366156;19;20010;-64
2022/05/04 05:28:10;;;;;;;16.88;12.35;;;11.60;25.50;;;;;;7363779;19;20012;-64
2022/05/04 05:30:41;;;;;;;14.07;11.82;;;11.60;25.10;;;;;;7366294;19;20459;-63
2022/05/04 05:33:11;;;;;;;17.45;11.77;;;11.60;25.50;;;;;;7367347;19;20044;-63
2022/05/04 05:35:41;;;;;;;13.13;11.73;;;11.70;25.70;;;;;;7365694;19;20010;-63
2022/05/04 05:38:11;;;;;;;16.00;11.88;;;11.80;25.30;;;;;;7384322;19;20121;-63
2022/05/04 05:40:44;;;;;;;19.60;12.63;;;11.90;25.10;;;;;;7366282;19;20014;-64
2022/05/04 05:43:14;;;;;;;17.27;11.95;;;11.80;24.50;;;;;;7365553;19;20006;-64
2022/05/04 05:45:44;;;;;;;14.55;12.40;;;11.90;25.50;;;;;;7365249;19;20085;-64
2022/05/04 05:48:14;;;;;;;20.10;12.52;;;12.00;25.30;;;;;;7360019;19;20419;-64
2022/05/04 05:50:44;;;;;;;18.45;13.27;;;12.20;25.10;;;;;;7365494;19;20010;-64
2022/05/04 05:53:14;;;;;;;18.58;11.75;;;12.30;24.60;;;;;;7388413;19;20091;-63
2022/05/04 05:55:47;;;;;;;21.33;12.77;;;12.30;23.60;;;;;;7366704;19;20378;-66
2022/05/04 05:58:17;;;;;;;16.40;12.65;;;12.30;23.60;;;;;;7359562;19;20011;-63
2022/05/04 06:00:46;;;;;;;20.42;12.52;;;12.50;23.00;;;;;;7366189;19;20006;-63
2022/05/04 06:03:17;;;;;;;18.48;12.75;;;12.40;23.20;;;;;;7365685;19;20021;-63
2022/05/04 06:05:47;;;;;;;18.20;13.07;;;12.50;24.40;;;;;;7365258;19;20025;-63
2022/05/04 06:08:17;;;;;;;19.17;14.00;;;12.50;26.30;;;;;;7382390;19;20014;-63
2022/05/04 06:10:49;;;;;;;17.75;14.45;;;12.60;26.60;;;;;;7366677;19;20014;-63
2022/05/04 06:13:19;;;;;;;20.20;13.43;;;12.50;26.10;;;;;;7365909;19;20086;-63
2022/05/04 06:15:49;;;;;;;20.80;14.10;;;12.50;27.10;;;;;;7364783;19;20107;-63
2022/05/04 06:18:19;;;;;;;17.23;14.18;;;12.60;27.80;;;;;;7359975;19;20093;-64
2022/05/04 06:20:49;;;;;;;22.67;14.73;;;12.70;27.40;;;;;;7364813;19;20006;-64
2022/05/04 06:23:19;;;;;;;23.48;13.48;;;12.80;27.70;;;;;;7386630;19;20021;-64
2022/05/04 06:25:51;;;;;;;19.67;13.50;;;13.00;26.50;;;;;;7366942;19;20018;-64
2022/05/04 06:28:21;;;;;;;20.55;13.93;;;13.20;23.40;;;;;;7358083;19;20017;-63
2022/05/04 06:36:16;;;;;;;18.73;13.45;;;13.40;21.90;;;;;;7366826;19;20021;-64
2022/05/04 06:38:46;;;;;;;20.33;13.38;;;13.50;21.50;;;;;;7357848;19;20479;-64
2022/05/04 06:41:24;;;;;;;16.02;12.82;;;13.50;20.60;;;;;;7389210;19;20469;-64
2022/05/04 06:43:53;;;;;;;15.80;12.38;;;13.40;19.90;;;;;;7362376;19;20013;-64
2022/05/04 06:46:23;;;;;;;18.63;12.90;;;13.80;19.30;;;;;;7361172;19;20015;-63
2022/05/04 06:48:53;;;;;;;19.23;12.75;;;13.90;16.50;;;;;;7356919;19;20625;-64
2022/05/04 06:51:23;;;;;;;20.02;13.32;;;13.90;17.30;;;;;;7366177;19;20011;-63
2022/05/04 06:53:53;;;;;;;17.92;12.73;;;14.10;17.20;;;;;;7364016;19;20018;-63
2022/05/04 06:56:46;;;;;;;19.58;11.82;;;14.10;16.50;;;;;;7366839;19;20478;-64
2022/05/04 06:59:16;;;;;;;21.50;12.52;;;14.10;16.00;;;;;;7378680;19;20081;-62
2022/05/04 07:01:47;;;;;;;12.63;10.77;;;14.20;15.00;;;;;;7365471;19;20008;-63
2022/05/04 07:04:17;;;;;;;16.58;11.07;;;14.20;12.10;;;;;;7360455;19;20033;-63
2022/05/04 07:06:47;;;;;;;18.77;11.98;;;14.10;15.90;;;;;;7364738;19;20094;-63
2022/05/04 07:09:16;;;;;;;15.07;11.50;;;14.30;14.20;;;;;;7357766;19;20023;-63
2022/05/04 07:11:49;;;;;;;17.75;11.85;;;14.50;12.90;;;;;;7363800;19;20041;-63
2022/05/04 07:14:19;;;;;;;16.70;11.95;;;14.60;12.30;;;;;;7385698;19;20037;-64
2022/05/04 07:16:49;;;;;;;12.95;11.30;;;14.40;12.00;;;;;;7362558;19;20074;-63
2022/05/04 07:19:19;;;;;;;16.45;12.15;;;14.30;12.30;;;;;;7355484;19;20014;-63
2022/05/04 07:21:49;;;;;;;18.20;12.07;;;14.60;13.50;;;;;;7365282;19;20106;-63
2022/05/04 07:24:19;;;;;;;18.60;11.48;;;14.60;12.00;;;;;;7363274;19;20015;-63
2022/05/04 07:26:51;;;;;;;14.40;11.20;;;14.60;10.00;;;;;;7364733;19;20022;-63
2022/05/04 07:29:22;;;;;;;17.23;11.70;;;14.70;8.20;;;;;;7377109;19;20081;-63
2022/05/04 07:31:52;;;;;;;14.40;11.55;;;15.00;7.50;;;;;;7363904;19;20133;-64
2022/05/04 07:34:22;;;;;;;15.85;12.20;;;14.80;9.60;;;;;;7361780;19;20038;-64
2022/05/04 07:36:52;;;;;;;13.23;11.57;;;14.30;15.10;;;;;;7365541;19;20516;-64
2022/05/04 07:44:50;;;;;;;18.90;12.73;;;14.00;19.20;;;;;;7362693;19;20014;-63
2022/05/04 07:47:26;;;;;;;19.75;13.52;;;13.60;20.40;;;;;;7387249;19;20018;-63
2022/05/04 07:49:56;;;;;;;19.95;13.30;;;14.10;21.40;;;;;;7355156;19;20018;-63
2022/05/04 07:52:27;;;;;;;18.35;12.57;;;14.00;19.10;;;;;;7363127;19;20041;-64
2022/05/04 07:54:57;;;;;;;16.42;11.63;;;14.00;19.10;;;;;;7363738;19;20067;-64
2022/05/04 07:57:30;;;;;;;15.75;12.38;;;14.10;17.80;;;;;;7363699;19;20014;-64
2022/05/04 08:05:31;;;;;;;11.70;9.77;;;14.60;13.40;;;;;;7382643;19;20490;-64
2022/05/04 08:08:01;;;;;;;16.17;10.95;;;14.10;13.80;;;;;;7362658;19;20429;-63
2022/05/04 08:10:31;;;;;;;12.10;10.27;;;14.60;13.80;;;;;;7358379;19;20020;-65
2022/05/04 08:13:03;;;;;;;14.18;10.55;;;14.30;12.60;;;;;;7359571;19;20463;-63
2022/05/04 08:15:33;;;;;;;11.07;9.60;;;14.60;10.90;;;;;;7360795;19;20017;-63
2022/05/04 08:18:03;;;;;;;13.88;9.15;;;15.00;8.40;;;;;;7360818;19;20082;-64
2022/05/04 08:20:34;;;;;;;11.27;9.25;;;15.00;7.50;;;;;;7380445;19;20090;-63
2022/05/04 08:23:04;;;;;;;13.50;9.63;;;15.30;5.90;;;;;;7362682;19;20492;-64
2022/05/04 08:25:34;;;;;;;12.88;9.52;;;15.50;4.80;;;;;;7359811;19;20011;-64
2022/05/04 08:28:07;;;;;;;10.88;8.85;;;15.20;4.50;;;;;;7359859;19;20029;-63
2022/05/04 08:30:36;;;;;;;12.07;8.55;;;15.00;6.60;;;;;;7358729;19;20041;-63
2022/05/04 08:33:06;;;;;;;10.38;8.63;;;14.70;5.10;;;;;;7362486;19;20018;-63
2022/05/04 08:35:36;;;;;;;10.90;8.77;;;15.10;4.20;;;;;;7383353;19;20023;-63
2022/05/04 08:38:06;;;;;;;13.13;9.52;;;14.70;2.10;;;;;;7359292;19;20090;-62
2022/05/04 08:40:36;;;;;;;10.35;9.23;;;15.20;3.20;;;;;;7357344;19;20018;-63
2022/05/04 08:43:09;;;;;;;9.80;8.80;;;15.00;2.20;;;;;;7361654;19;20089;-64
2022/05/04 08:45:40;;;;;;;10.68;8.75;;;15.30;2.40;;;;;;7361459;19;20394;-63
2022/05/04 08:48:11;;;;;;;10.65;9.35;;;15.30;3.90;;;;;;7358106;19;20072;-63
2022/05/04 08:50:41;;;;;;;12.40;9.38;;;15.50;3.30;;;;;;7359256;19;20021;-63
2022/05/04 08:53:12;;;;;;;11.73;9.32;;;15.50;4.80;;;;;;7382376;19;20102;-63
2022/05/04 08:55:44;;;;;;;10.70;9.60;;;15.70;3.80;;;;;;7361173;19;20017;-63
2022/05/04 08:58:17;;;;;;;12.60;9.32;;;15.50;2.50;;;;;;7356989;19;20035;-63
2022/05/04 09:00:47;;;;;;;14.98;9.82;;;15.10;3.40;;;;;;7359944;19;20025;-63
2022/05/04 09:03:18;;;;;;;12.10;9.13;;;15.20;3.50;;;;;;7361527;19;20014;-64
2022/05/04 09:05:50;;;;;;;10.75;8.93;;;15.50;1.00;;;;;;7359739;19;20078;-63
2022/05/04 09:08:56;;;;;;;10.30;9.18;;;15.50;1.00;;;;;;7355407;19;20006;-63
2022/05/04 09:11:27;;;;;;;10.50;9.40;;;15.20;1.00;;;;;;7383372;19;20010;-63
2022/05/04 09:13:59;;;;;;;12.23;9.95;;;15.20;1.00;;;;;;7359718;19;20014;-63
2022/05/04 09:16:31;;;;;;;14.25;10.13;;;15.80;1.00;;;;;;7361972;19;20087;-63
2022/05/04 09:19:07;;;;;;;12.68;10.20;;;15.80;1.00;;;;;;7353303;19;20031;-63
2022/05/04 09:21:38;;;;;;;13.40;9.80;;;15.80;1.00;;;;;;7361436;19;20015;-63
2022/05/04 09:24:09;;;;;;;13.40;10.43;;;16.10;1.00;;;;;;7358723;19;20018;-63
2022/05/04 09:26:42;;;;;;;11.70;9.52;;;15.60;1.00;;;;;;7363054;19;20090;-63
2022/05/04 09:29:16;;;;;;;13.98;10.40;;;16.20;1.00;;;;;;7382059;19;20550;-64
2022/05/04 09:31:50;;;;;;;14.50;10.15;;;16.50;1.00;;;;;;7368918;19;20020;-62
2022/05/04 09:34:46;;;;;;;11.95;10.52;;;16.40;1.00;;;;;;7365466;19;20085;-63
2022/05/04 09:45:38;;;;;;;11.75;9.45;;;16.40;1.00;;;;;;7366738;19;20383;-63
2022/05/04 09:48:13;;;;;;;13.10;9.15;;;17.10;1.00;;;;;;7366615;19;20039;-63
2022/05/04 09:50:45;;;;;;;11.60;9.00;;;16.80;1.00;;;;;;7363281;19;20010;-63
2022/05/04 09:53:15;;;;;;;10.13;8.80;;;17.20;1.00;;;;;;7388185;19;20021;-64
2022/05/04 09:55:45;;;;;;;10.85;8.40;;;16.80;1.00;;;;;;7364950;19;20018;-64
2022/05/04 09:58:16;;;;;;;9.50;8.50;;;17.10;1.00;;;;;;7362880;19;20538;-63
2022/05/04 10:00:49;;;;;;;13.50;9.27;;;17.10;1.00;;;;;;7362800;19;20085;-63
2022/05/04 10:03:19;;;;;;;9.32;8.40;;;16.60;1.00;;;;;;7365598;19;20495;-63
2022/05/04 10:05:49;;;;;;;9.38;8.43;;;17.20;1.00;;;;;;7363002;19;20021;-64
2022/05/04 10:08:19;;;;;;;10.93;9.82;;;17.30;1.00;;;;;;7384328;19;20024;-61
2022/05/04 10:10:50;;;;;;;12.32;9.98;;;16.70;1.00;;;;;;7362924;19;20015;-61
2022/05/04 10:13:21;;;;;;;12.93;9.75;;;16.50;1.00;;;;;;7364860;19;20018;-61
2022/05/04 10:15:58;;;;;;;11.48;9.60;;;16.90;1.00;;;;;;7365459;19;20006;-60
2022/05/04 10:18:32;;;;;;;12.60;10.18;;;16.40;1.00;;;;;;7362580;19;20053;-60
2022/05/04 10:21:11;;;;;;;13.18;9.82;;;16.80;1.00;;;;;;7364951;19;20514;-61
2022/05/04 10:23:46;;;;;;;13.27;9.82;;;17.10;1.00;;;;;;7365402;19;20023;-61
2022/05/04 10:26:17;;;;;;;12.48;10.30;;;17.10;1.00;;;;;;7386837;19;20093;-61
2022/05/04 10:30:30;;;;;;;11.45;10.35;;;17.30;1.00;;;;;;7358161;19;20017;-61
2022/05/04 10:31:37;;;;;;;13.35;10.02;;;17.10;1.00;;;;;;7361997;19;20093;-61
2022/05/04 10:34:10;;;;;;;11.55;10.35;;;17.10;1.00;;;;;;7364455;19;20011;-61
2022/05/04 10:36:48;;;;;;;10.80;9.57;;;16.50;1.00;;;;;;7367012;19;20014;-62
2022/05/04 10:39:23;;;;;;;11.93;9.00;;;16.80;1.00;;;;;;7359053;19;20014;-62
2022/05/04 10:41:53;;;;;;;10.50;9.40;;;16.90;1.00;;;;;;7365708;19;20014;-61
2022/05/04 10:44:53;;;;;;;10.07;9.07;;;17.10;1.00;;;;;;7386354;19;20019;-61
2022/05/04 10:47:28;;;;;;;10.65;9.25;;;17.30;1.00;;;;;;7364019;19;20022;-61
2022/05/04 10:50:01;;;;;;;13.15;10.45;;;17.40;1.00;;;;;;7358176;19;20021;-62
2022/05/04 10:52:34;;;;;;;14.88;11.02;;;17.60;1.00;;;;;;7366334;19;20014;-62
2022/05/04 10:55:05;;;;;;;11.30;9.45;;;18.10;1.00;;;;;;7364183;19;20010;-61
2022/05/04 10:57:42;;;;;;;12.43;9.57;;;18.50;1.00;;;;;;7367055;19;20010;-61
2022/05/04 11:00:32;;;;;;;10.13;9.10;;;17.70;1.00;;;;;;7360293;19;20018;-61
2022/05/04 11:03:07;;;;;;;13.32;9.85;;;17.40;1.00;;;;;;7362809;19;20487;-61
2022/05/04 11:05:48;;;;;;;10.63;9.30;;;18.40;1.00;;;;;;7383420;19;20014;-61
2022/05/04 11:08:27;;;;;;;12.15;10.07;;;18.00;1.00;;;;;;7359975;19;20010;-61
2022/05/04 11:10:57;;;;;;;10.40;8.63;;;18.00;1.00;;;;;;7360788;19;20018;-61
2022/05/04 11:13:27;;;;;;;10.15;9.15;;;18.30;1.00;;;;;;7363469;19;20609;-61
2022/05/04 11:16:01;;;;;;;9.25;7.97;;;18.70;1.00;;;;;;7362427;19;20007;-62
2022/05/04 11:18:35;;;;;;;8.95;7.65;;;18.90;1.00;;;;;;7360482;19;20085;-61
2022/05/04 11:21:06;;;;;;;8.88;7.68;;;18.20;1.00;;;;;;7361932;19;20018;-60
2022/05/04 11:23:39;;;;;;;10.88;6.88;;;17.70;1.00;;;;;;7385581;19;20052;-61
2022/05/04 11:26:09;;;;;;;8.45;7.22;;;18.20;1.00;;;;;;7364361;19;20010;-61
2022/05/04 11:28:38;;;;;;;10.32;6.95;;;18.20;1.00;;;;;;7358625;19;20036;-61
2022/05/04 11:31:11;;;;;;;8.30;7.50;;;17.90;1.00;;;;;;7361863;19;20017;-61
2022/05/04 11:33:46;;;;;;;12.30;6.88;;;18.20;1.00;;;;;;7363115;19;20040;-60
2022/05/04 11:36:21;;;;;;;8.27;7.45;;;18.20;1.00;;;;;;7362410;19;20500;-60
2022/05/04 11:38:52;;;;;;;7.85;6.45;;;18.20;1.00;;;;;;7358179;19;20088;-60
2022/05/04 11:41:22;;;;;;;10.00;6.45;;;18.10;1.00;;;;;;7386999;19;20024;-60
2022/05/04 11:43:54;;;;;;;8.07;6.15;;;18.40;1.00;;;;;;7360473;19;20015;-61
2022/05/04 11:46:24;;;;;;;8.32;6.40;;;18.30;1.00;;;;;;7362499;19;20006;-61
2022/05/04 11:49:00;;;;;;;7.53;6.57;;;18.30;1.00;;;;;;7358842;19;20015;-62
2022/05/04 11:51:32;;;;;;;7.68;6.80;;;18.40;1.00;;;;;;7364464;19;20431;-60
2022/05/04 11:54:01;;;;;;;10.18;6.53;;;18.20;1.00;;;;;;7362029;19;20085;-61
2022/05/04 11:56:31;;;;;;;7.82;5.65;;;18.40;1.00;;;;;;7385131;19;20026;-61
2022/05/04 11:59:01;;;;;;;8.20;5.53;;;18.20;1.00;;;;;;7355902;19;20010;-61
2022/05/04 12:01:32;;;;;;;8.20;5.40;;;18.90;1.00;;;;;;7362049;19;20026;-61
2022/05/04 12:04:05;;;;;;;5.60;4.28;;;19.10;1.00;;;;;;7359730;19;20010;-60
2022/05/04 12:06:37;;;;;;;6.55;4.43;;;19.50;1.00;;;;;;7363340;19;20427;-60
2022/05/04 12:09:07;;;;;;;7.63;4.07;;;20.00;1.00;;;;;;7355765;19;20097;-62
2022/05/04 12:11:37;;;;;;;3.30;2.83;;;20.40;1.00;;;;;;7385271;19;20014;-61
2022/05/04 12:14:07;;;;;;;5.25;2.58;;;20.60;1.00;;;;;;7362055;19;20467;-60
2022/05/04 12:16:40;;;;;;;3.40;2.60;;;20.60;1.00;;;;;;7363559;19;20022;-63
2022/05/04 12:19:13;;;;;;;4.65;2.92;;;20.70;1.00;;;;;;7355127;19;20462;-62
2022/05/04 12:21:43;;;;;;;8.02;3.70;;;20.00;1.00;;;;;;7361858;19;20022;-60
2022/05/04 12:24:14;;;;;;;4.68;2.90;;;20.30;1.00;;;;;;7360354;19;20011;-60
2022/05/04 12:26:44;;;;;;;4.60;3.40;;;20.40;1.00;;;;;;7362789;19;20007;-61
2022/05/04 12:34:44;;;;;;;3.60;2.85;;;20.60;1.00;;;;;;7358795;19;20010;-61
2022/05/04 12:37:14;;;;;;;5.65;3.55;;;21.00;1.00;;;;;;7361004;19;20007;-62
2022/05/04 12:39:45;;;;;;;3.53;2.80;;;21.20;1.00;;;;;;7354121;19;20542;-61
2022/05/04 12:42:18;;;;;;;4.30;3.22;;;21.20;1.00;;;;;;7360916;19;20445;-61
2022/05/04 12:44:52;;;;;;;5.70;2.97;;;21.40;1.00;;;;;;7358997;19;20116;-62
2022/05/04 12:47:24;;;;;;;3.97;2.72;;;21.60;1.00;;;;;;7382017;19;20047;-61
2022/05/04 12:49:57;;;;;;;5.03;2.95;;;22.10;1.00;;;;;;7353402;19;20011;-61
2022/05/04 12:52:27;;;;;;;4.45;2.45;;;22.10;1.00;;;;;;7361748;19;20013;-61
2022/05/04 12:54:57;;;;;;;3.53;2.70;;;22.30;1.00;;;;;;7359474;19;20015;-62
2022/05/04 12:57:26;;;;;;;4.35;2.40;;;22.40;1.00;;;;;;7360336;19;20375;-61
2022/05/04 12:59:56;;;;;;;3.83;2.80;;;22.30;1.00;;;;;;7354146;19;20014;-62
2022/05/04 13:02:26;;;;;;;4.25;2.83;;;22.40;1.00;;;;;;7389268;19;20040;-62
2022/05/04 13:04:59;;;;;;;5.05;2.50;;;22.20;1.00;;;;;;7365299;19;20486;-61
2022/05/04 13:07:29;;;;;;;3.08;2.67;;;22.40;1.00;;;;;;7367434;19;20055;-60
2022/05/04 13:10:04;;;;;;;3.38;2.83;;;21.40;1.00;;;;;;7360637;19;20014;-61
2022/05/04 13:12:34;;;;;;;3.00;2.67;;;21.20;1.00;;;;;;7368735;19;20014;-63
2022/05/04 13:15:04;;;;;;;2.78;2.55;;;21.50;1.00;;;;;;7367002;19;20021;-61
2022/05/04 13:17:33;;;;;;;4.15;2.65;;;20.80;1.00;;;;;;7390647;19;20013;-60
2022/05/04 13:20:08;;;;;;;4.63;3.05;;;21.40;1.00;;;;;;7358584;19;20045;-61
2022/05/04 13:22:38;;;;;;;3.80;2.85;;;21.70;1.00;;;;;;7367862;19;20534;-61
2022/05/04 13:25:10;;;;;;;7.45;3.25;;;22.40;1.00;;;;;;7366861;19;20090;-61
2022/05/04 13:27:40;;;;;;;3.28;2.97;;;22.40;1.00;;;;;;7368277;19;20019;-62
2022/05/04 13:30:11;;;;;;;11.07;4.10;;;21.90;1.00;;;;;;7360411;19;20019;-62
2022/05/04 13:32:41;;;;;;;3.33;2.95;;;22.10;1.00;;;;;;7368566;19;20014;-60
2022/05/04 13:35:14;;;;;;;6.13;3.63;;;22.60;1.00;;;;;;7386915;19;20070;-61
2022/05/04 13:37:43;;;;;;;6.00;3.13;;;22.70;1.00;;;;;;7366962;19;20014;-61
2022/05/04 13:40:15;;;;;;;4.45;2.63;;;22.30;1.00;;;;;;7360656;19;20095;-61
2022/05/04 13:42:50;;;;;;;3.80;3.00;;;22.30;1.00;;;;;;7368692;19;20021;-61
2022/05/04 13:45:20;;;;;;;3.40;3.00;;;22.20;1.00;;;;;;7365782;19;20081;-61